createdAt,value
2023-04-20T00:00:01.627Z,12.27
2023-04-20T00:01:09.641Z,13.02
2023-04-20T00:02:15.612Z,8.43
2023-04-20T00:03:21.865Z,9.45
2023-04-20T00:04:28.331Z,10.68
2023-04-20T00:05:33.386Z,6.88
2023-04-20T00:06:37.706Z,6.28
2023-04-20T00:07:41.925Z,10.93
2023-04-20T00:08:45.606Z,15.52
2023-04-20T00:09:49.387Z,7.47
2023-04-20T00:10:53.068Z,7.78
2023-04-20T00:11:57.083Z,7.95
2023-04-20T00:13:01.006Z,12.70
2023-04-20T00:14:05.193Z,10.30
2023-04-20T00:15:10.036Z,14.93
2023-04-20T00:16:14.017Z,12.13
2023-04-20T00:17:18.448Z,9.23
2023-04-20T00:18:22.170Z,8.65
2023-04-20T00:19:28.441Z,8.68
2023-04-20T00:20:32.217Z,9.57
2023-04-20T00:21:36.736Z,11.02
2023-04-20T00:22:40.569Z,8.65
2023-04-20T00:23:44.464Z,10.13
2023-04-20T00:24:48.541Z,8.13
2023-04-20T00:25:52.421Z,11.75
2023-04-20T00:26:56.627Z,10.63
2023-04-20T00:28:01.278Z,7.03
2023-04-20T00:29:05.132Z,7.93
2023-04-20T00:30:10.894Z,8.73
2023-04-20T00:31:15.208Z,10.23
2023-04-20T00:32:18.892Z,6.47
2023-04-20T00:33:22.581Z,8.90
2023-04-20T00:34:33.064Z,8.48
2023-04-20T00:35:36.773Z,9.95
2023-04-20T00:36:40.566Z,14.50
2023-04-20T00:37:44.414Z,7.53
2023-04-20T00:38:48.541Z,9.70
2023-04-20T00:39:53.178Z,12.20
2023-04-20T00:40:58.080Z,10.25
2023-04-20T00:42:14.334Z,8.63
2023-04-20T00:43:18.189Z,5.97
2023-04-20T00:44:22.353Z,13.57
2023-04-20T00:45:26.323Z,5.40
2023-04-20T00:46:36.502Z,7.53
2023-04-20T00:47:54.685Z,7.55
2023-04-20T00:48:59.221Z,9.60
2023-04-20T00:50:03.871Z,12.35
2023-04-20T00:51:09.963Z,8.73
2023-04-20T00:52:13.859Z,7.15
2023-04-20T00:53:18.884Z,7.68
2023-04-20T00:54:22.988Z,8.98
2023-04-20T00:55:29.378Z,5.22
2023-04-20T00:56:33.214Z,8.80
2023-04-20T00:57:37.243Z,10.63
2023-04-20T00:58:42.930Z,6.40
2023-04-20T00:59:47.224Z,7.47
2023-04-20T01:00:51.112Z,8.40
2023-04-20T01:01:55.241Z,8.57
2023-04-20T01:02:59.430Z,8.27
2023-04-20T01:04:03.223Z,10.77
2023-04-20T01:05:07.387Z,11.07
2023-04-20T01:06:13.869Z,9.90
2023-04-20T01:07:17.992Z,10.50
2023-04-20T01:08:26.303Z,11.82
2023-04-20T01:09:30.294Z,9.85
2023-04-20T01:10:34.153Z,15.00
2023-04-20T01:11:39.465Z,7.28
2023-04-20T01:12:44.988Z,8.02
2023-04-20T01:13:50.114Z,11.55
2023-04-20T01:14:54.009Z,10.55
2023-04-20T01:16:00.680Z,10.77
2023-04-20T01:17:07.167Z,7.15
2023-04-20T01:18:11.886Z,6.78
2023-04-20T01:19:16.247Z,7.93
2023-04-20T01:20:20.700Z,13.68
2023-04-20T01:21:25.017Z,8.68
2023-04-20T01:22:28.812Z,6.38
2023-04-20T01:23:38.354Z,16.02
2023-04-20T01:24:42.622Z,9.82
2023-04-20T01:25:49.477Z,9.13
2023-04-20T01:26:53.610Z,8.32
2023-04-20T01:27:57.613Z,11.73
2023-04-20T01:29:01.526Z,6.07
2023-04-20T01:30:06.681Z,12.93
2023-04-20T01:31:13.025Z,12.20
2023-04-20T01:32:16.807Z,8.23
2023-04-20T01:33:20.883Z,9.77
2023-04-20T01:34:25.005Z,14.20
2023-04-20T01:35:29.045Z,10.52
2023-04-20T01:36:33.807Z,13.88
2023-04-20T01:37:38.255Z,15.60
2023-04-20T01:38:42.232Z,13.73
2023-04-20T01:39:45.993Z,11.68
2023-04-20T01:40:50.633Z,12.73
2023-04-20T01:41:54.676Z,11.25
2023-04-20T01:42:59.058Z,14.85
2023-04-20T01:44:02.799Z,13.27
2023-04-20T01:45:07.672Z,20.50
2023-04-20T01:46:11.624Z,12.52
2023-04-20T01:47:15.459Z,13.00
2023-04-20T01:48:19.385Z,13.82
2023-04-20T01:49:23.762Z,12.90
2023-04-20T01:50:27.622Z,17.30
2023-04-20T01:51:33.225Z,14.55
2023-04-20T01:52:37.122Z,16.85
2023-04-20T01:53:41.212Z,12.43
2023-04-20T01:54:46.149Z,19.48
2023-04-20T01:55:51.196Z,15.32
2023-04-20T01:56:54.912Z,12.65
2023-04-20T01:57:59.414Z,13.68
2023-04-20T01:59:03.377Z,18.63
2023-04-20T02:00:09.126Z,11.63
2023-04-20T02:01:12.919Z,14.43
2023-04-20T02:02:17.037Z,14.82
2023-04-20T02:03:21.269Z,14.55
2023-04-20T02:04:26.722Z,14.30
2023-04-20T02:05:31.186Z,20.33
2023-04-20T02:06:35.023Z,18.27
2023-04-20T02:07:38.992Z,17.10
2023-04-20T02:08:42.963Z,21.65
2023-04-20T02:09:46.974Z,18.67
2023-04-20T02:10:50.618Z,16.38
2023-04-20T02:11:54.361Z,16.65
2023-04-20T02:12:58.102Z,13.55
2023-04-20T02:14:02.222Z,12.52
2023-04-20T02:15:09.333Z,10.65
2023-04-20T02:16:13.352Z,15.68
2023-04-20T02:17:19.225Z,16.15
2023-04-20T02:18:23.362Z,11.18
2023-04-20T02:19:27.826Z,15.93
2023-04-20T02:20:31.716Z,13.70
2023-04-20T02:21:35.706Z,15.05
2023-04-20T02:22:39.640Z,12.32
2023-04-20T02:23:43.319Z,11.73
2023-04-20T02:24:46.890Z,14.23
2023-04-20T02:25:50.982Z,15.20
2023-04-20T02:26:55.740Z,20.70
2023-04-20T02:27:59.956Z,15.52
2023-04-20T02:29:07.558Z,12.50
2023-04-20T02:30:11.893Z,10.35
2023-04-20T02:31:15.859Z,13.15
2023-04-20T02:32:19.812Z,14.73
2023-04-20T02:33:23.507Z,15.43
2023-04-20T02:34:27.482Z,11.75
2023-04-20T02:35:31.251Z,10.82
2023-04-20T02:36:35.813Z,10.73
2023-04-20T02:37:39.651Z,11.57
2023-04-20T02:38:43.516Z,11.57
2023-04-20T02:39:47.523Z,14.07
2023-04-20T02:40:51.342Z,7.57
2023-04-20T02:41:55.469Z,14.70
2023-04-20T02:42:59.154Z,11.85
2023-04-20T02:44:03.038Z,9.52
2023-04-20T02:45:07.835Z,14.77
2023-04-20T02:46:11.663Z,11.40
2023-04-20T02:47:15.663Z,10.02
2023-04-20T02:48:19.432Z,14.90
2023-04-20T02:49:23.426Z,8.07
2023-04-20T02:50:27.746Z,11.13
2023-04-20T02:51:34.892Z,12.45
2023-04-20T02:52:38.985Z,9.73
2023-04-20T02:53:42.922Z,15.30
2023-04-20T02:54:47.426Z,12.35
2023-04-20T02:55:51.080Z,9.05
2023-04-20T02:56:55.892Z,11.52
2023-04-20T02:58:01.013Z,10.23
2023-04-20T02:59:05.333Z,10.48
2023-04-20T03:00:09.749Z,8.95
2023-04-20T03:01:16.758Z,9.73
2023-04-20T03:02:20.545Z,7.82
2023-04-20T03:03:24.381Z,19.48
2023-04-20T03:04:28.452Z,10.88
2023-04-20T03:05:32.640Z,8.63
2023-04-20T03:06:39.732Z,12.05
2023-04-20T03:07:46.326Z,11.52
2023-04-20T03:08:50.533Z,10.10
2023-04-20T03:09:54.630Z,10.85
2023-04-20T03:10:58.975Z,9.68
2023-04-20T03:12:03.547Z,12.05
2023-04-20T03:13:07.718Z,12.40
2023-04-20T03:14:12.025Z,10.68
2023-04-20T03:15:17.150Z,10.70
2023-04-20T03:16:21.806Z,11.30
2023-04-20T03:17:30.871Z,8.85
2023-04-20T03:18:38.559Z,9.25
2023-04-20T03:19:52.054Z,11.00
2023-04-20T03:20:59.352Z,10.80
2023-04-20T03:22:13.366Z,10.50
2023-04-20T03:23:23.362Z,11.60
2023-04-20T03:24:27.237Z,9.43
2023-04-20T03:25:34.192Z,9.07
2023-04-20T03:26:39.593Z,8.30
2023-04-20T03:27:46.198Z,15.50
2023-04-20T03:28:55.285Z,9.00
2023-04-20T03:30:01.177Z,7.55
2023-04-20T03:31:09.047Z,9.20
2023-04-20T03:32:13.623Z,9.70
2023-04-20T03:34:39.536Z,8.25
2023-04-20T03:35:46.939Z,11.45
2023-04-20T03:36:58.194Z,10.30
2023-04-20T03:38:03.344Z,13.65
2023-04-20T03:39:12.088Z,8.43
2023-04-20T03:40:16.208Z,8.73
2023-04-20T03:41:20.072Z,10.32
2023-04-20T03:42:24.874Z,7.97
2023-04-20T03:43:37.265Z,11.82
2023-04-20T03:44:41.793Z,10.18
2023-04-20T03:45:49.733Z,9.38
2023-04-20T03:46:53.680Z,13.05
2023-04-20T03:48:04.857Z,9.77
2023-04-20T03:49:14.462Z,8.93
2023-04-20T03:50:18.587Z,8.50
2023-04-20T03:51:23.210Z,11.82
2023-04-20T03:52:30.162Z,13.50
2023-04-20T03:53:41.150Z,11.27
2023-04-20T03:54:45.560Z,11.35
2023-04-20T03:55:53.648Z,11.07
2023-04-20T03:56:59.809Z,15.02
2023-04-20T03:58:05.341Z,11.77
2023-04-20T03:59:12.382Z,13.60
2023-04-20T04:00:16.653Z,12.65
2023-04-20T04:01:20.981Z,7.57
2023-04-20T04:02:28.737Z,12.55
2023-04-20T04:03:41.458Z,14.20
2023-04-20T04:04:54.682Z,8.30
2023-04-20T04:06:04.896Z,10.95
2023-04-20T04:07:09.119Z,13.13
2023-04-20T04:08:16.775Z,7.60
2023-04-20T04:09:31.191Z,10.43
2023-04-20T04:10:35.395Z,9.13
2023-04-20T04:11:40.447Z,12.88
2023-04-20T04:12:44.288Z,12.70
2023-04-20T04:13:49.609Z,9.98
2023-04-20T04:14:53.295Z,9.77
2023-04-20T04:15:57.452Z,10.65
2023-04-20T04:17:05.192Z,5.35
2023-04-20T04:18:09.946Z,10.50
2023-04-20T04:19:15.269Z,10.75
2023-04-20T04:20:19.060Z,10.02
2023-04-20T04:21:23.113Z,12.52
2023-04-20T04:22:29.242Z,14.27
2023-04-20T04:23:34.280Z,10.98
2023-04-20T04:24:41.775Z,11.25
2023-04-20T04:25:46.240Z,10.75
2023-04-20T04:26:50.001Z,10.02
2023-04-20T04:27:55.271Z,13.80
2023-04-20T04:28:59.363Z,17.73
2023-04-20T04:30:03.663Z,11.95
2023-04-20T04:31:13.128Z,9.73
2023-04-20T04:32:18.234Z,10.35
2023-04-20T04:33:34.828Z,10.85
2023-04-20T04:34:53.725Z,13.43
2023-04-20T04:35:57.855Z,14.48
2023-04-20T04:37:02.059Z,11.20
2023-04-20T04:38:06.821Z,10.70
2023-04-20T04:39:11.105Z,11.15
2023-04-20T04:40:15.373Z,13.90
2023-04-20T04:41:19.386Z,14.73
2023-04-20T04:42:24.961Z,13.45
2023-04-20T04:43:30.195Z,15.10
2023-04-20T04:44:37.597Z,16.13
2023-04-20T04:45:41.596Z,11.35
2023-04-20T04:46:47.887Z,12.68
2023-04-20T04:47:55.236Z,11.93
2023-04-20T04:49:07.361Z,13.07
2023-04-20T04:50:13.524Z,10.65
2023-04-20T04:51:18.045Z,11.88
2023-04-20T04:52:22.931Z,9.02
2023-04-20T04:53:26.552Z,6.68
2023-04-20T04:54:30.355Z,11.20
2023-04-20T04:55:34.447Z,9.32
2023-04-20T04:56:38.296Z,9.40
2023-04-20T04:57:41.942Z,6.43
2023-04-20T04:58:45.903Z,9.18
2023-04-20T04:59:49.589Z,8.52
2023-04-20T05:00:53.408Z,12.70
2023-04-20T05:01:57.393Z,12.13
2023-04-20T05:03:04.490Z,11.60
2023-04-20T05:04:08.668Z,11.27
2023-04-20T05:05:13.131Z,10.02
2023-04-20T05:06:24.340Z,8.63
2023-04-20T05:07:28.351Z,14.88
2023-04-20T05:08:32.298Z,9.07
2023-04-20T05:09:39.103Z,12.65
2023-04-20T05:10:45.613Z,7.93
2023-04-20T05:11:53.182Z,12.30
2023-04-20T05:13:10.044Z,7.63
2023-04-20T05:14:13.989Z,11.82
2023-04-20T05:15:18.152Z,8.57
2023-04-20T05:16:26.318Z,11.90
2023-04-20T05:17:32.955Z,11.57
2023-04-20T05:18:37.048Z,14.40
2023-04-20T05:19:45.429Z,10.95
2023-04-20T05:20:52.597Z,9.93
2023-04-20T05:22:00.225Z,16.60
2023-04-20T05:23:08.820Z,9.25
2023-04-20T05:24:18.223Z,9.95
2023-04-20T05:25:43.253Z,9.73
2023-04-20T05:26:46.993Z,10.85
2023-04-20T05:27:51.292Z,8.43
2023-04-20T05:28:58.837Z,16.70
2023-04-20T05:30:19.490Z,14.05
2023-04-20T05:32:57.668Z,9.18
2023-04-20T05:34:03.380Z,8.95
2023-04-20T05:35:09.463Z,10.40
2023-04-20T05:36:22.630Z,11.15
2023-04-20T05:37:27.696Z,11.20
2023-04-20T05:38:32.001Z,24.15
2023-04-20T05:39:36.099Z,9.48
2023-04-20T05:40:40.605Z,12.25
2023-04-20T05:41:52.381Z,9.07
2023-04-20T05:42:59.364Z,8.02
2023-04-20T05:44:03.435Z,7.68
2023-04-20T05:45:08.135Z,9.82
2023-04-20T05:46:11.950Z,11.43
2023-04-20T05:47:17.751Z,7.28
2023-04-20T05:48:23.879Z,12.18
2023-04-20T05:49:27.677Z,9.18
2023-04-20T05:50:31.575Z,13.82
2023-04-20T05:51:35.323Z,8.18
2023-04-20T05:52:39.446Z,8.60
2023-04-20T05:53:43.404Z,23.20
2023-04-20T05:54:47.258Z,10.50
2023-04-20T05:55:51.374Z,10.68
2023-04-20T05:56:57.496Z,9.65
2023-04-20T05:58:01.863Z,5.22
2023-04-20T05:59:06.762Z,10.68
2023-04-20T06:00:16.804Z,8.48
2023-04-20T06:01:20.861Z,9.77
2023-04-20T06:02:25.232Z,8.52
2023-04-20T06:03:34.147Z,7.68
2023-04-20T06:04:38.857Z,10.10
2023-04-20T06:05:46.224Z,7.82
2023-04-20T06:06:49.980Z,16.02
2023-04-20T06:07:54.099Z,6.68
2023-04-20T06:08:58.708Z,8.13
2023-04-20T06:10:03.647Z,11.95
2023-04-20T06:11:08.800Z,10.98
2023-04-20T06:12:16.579Z,9.38
2023-04-20T06:13:21.330Z,9.52
2023-04-20T06:14:25.965Z,7.25
2023-04-20T06:15:31.911Z,14.68
2023-04-20T06:16:36.598Z,12.50
2023-04-20T06:17:42.765Z,8.20
2023-04-20T06:18:50.060Z,9.27
2023-04-20T06:19:54.066Z,14.50
2023-04-20T06:20:57.933Z,7.95
2023-04-20T06:22:06.989Z,7.95
2023-04-20T06:23:12.316Z,9.77
2023-04-20T06:24:16.523Z,10.60
2023-04-20T06:25:20.682Z,23.67
2023-04-20T06:26:25.176Z,6.13
2023-04-20T06:27:29.225Z,10.25
2023-04-20T06:33:20.758Z,20.45
2023-04-20T06:34:33.920Z,12.13
2023-04-20T06:35:38.256Z,8.63
2023-04-20T06:36:44.813Z,9.27
2023-04-20T06:37:50.214Z,12.90
2023-04-20T06:38:56.644Z,6.45
2023-04-20T06:40:11.386Z,9.30
2023-04-20T06:41:17.026Z,8.13
2023-04-20T06:42:23.321Z,7.78
2023-04-20T06:43:27.636Z,9.63
2023-04-20T06:44:38.340Z,9.95
2023-04-20T06:45:42.456Z,11.77
2023-04-20T06:46:47.280Z,8.63
2023-04-20T06:47:54.654Z,9.60
2023-04-20T06:49:02.029Z,7.63
2023-04-20T06:50:17.287Z,12.30
2023-04-20T06:51:21.721Z,9.20
2023-04-20T06:52:31.741Z,6.90
2023-04-20T06:53:39.441Z,5.95
2023-04-20T06:54:47.172Z,5.35
2023-04-20T06:55:58.741Z,10.60
2023-04-20T06:57:04.401Z,9.40
2023-04-20T06:58:08.387Z,9.23
2023-04-20T06:59:12.271Z,8.27
2023-04-20T07:00:17.295Z,12.70
2023-04-20T07:01:21.893Z,10.20
2023-04-20T07:02:26.378Z,7.43
2023-04-20T07:03:30.581Z,14.30
2023-04-20T07:04:34.435Z,6.45
2023-04-20T07:05:38.365Z,7.93
2023-04-20T07:06:42.318Z,7.45
2023-04-20T07:07:46.384Z,4.53
2023-04-20T07:08:51.874Z,6.43
2023-04-20T07:09:56.050Z,6.35
2023-04-20T07:11:00.291Z,6.65
2023-04-20T07:12:04.188Z,6.68
2023-04-20T07:13:09.892Z,5.47
2023-04-20T07:14:13.676Z,5.53
2023-04-20T07:15:17.579Z,8.10
2023-04-20T07:16:21.290Z,5.55
2023-04-20T07:17:29.615Z,7.70
2023-04-20T07:18:35.293Z,6.63
2023-04-20T07:19:39.369Z,5.57
2023-04-20T07:20:43.474Z,7.18
2023-04-20T07:21:47.616Z,7.03
2023-04-20T07:22:52.270Z,4.63
2023-04-20T07:23:59.565Z,6.05
2023-04-20T07:25:09.010Z,5.13
2023-04-20T07:26:13.044Z,5.70
2023-04-20T07:27:17.047Z,5.80
2023-04-20T07:28:20.987Z,4.97
2023-04-20T07:29:24.736Z,7.70
2023-04-20T07:30:28.612Z,5.03
2023-04-20T07:31:34.184Z,6.15
2023-04-20T07:32:41.482Z,7.32
2023-04-20T07:33:45.563Z,7.47
2023-04-20T07:34:49.273Z,7.80
2023-04-20T07:35:53.186Z,9.10
2023-04-20T07:36:56.716Z,8.98
2023-04-20T07:38:00.630Z,6.57
2023-04-20T07:39:05.448Z,6.85
2023-04-20T07:40:10.478Z,6.00
2023-04-20T07:41:15.098Z,6.50
2023-04-20T07:42:23.366Z,11.30
2023-04-20T07:43:27.147Z,7.03
2023-04-20T07:44:31.187Z,8.73
2023-04-20T07:45:35.042Z,8.27
2023-04-20T07:46:38.711Z,6.93
2023-04-20T07:47:44.962Z,7.63
2023-04-20T07:48:49.140Z,7.97
2023-04-20T07:49:52.782Z,14.20
2023-04-20T07:50:56.518Z,8.77
2023-04-20T07:52:12.828Z,9.75
2023-04-20T07:53:19.957Z,6.20
2023-04-20T07:54:23.639Z,7.65
2023-04-20T07:55:27.438Z,10.63
2023-04-20T07:56:32.242Z,8.20
2023-04-20T07:57:36.410Z,6.90
2023-04-20T07:58:40.935Z,5.55
2023-04-20T07:59:46.651Z,4.72
2023-04-20T08:00:50.734Z,5.70
2023-04-20T08:02:00.806Z,6.25
2023-04-20T08:03:06.594Z,4.93
2023-04-20T08:04:10.445Z,10.48
2023-04-20T08:05:14.775Z,5.00
2023-04-20T08:06:18.651Z,8.30
2023-04-20T08:07:23.692Z,18.08
2023-04-20T08:08:27.697Z,4.93
2023-04-20T08:09:31.986Z,7.03
2023-04-20T08:10:36.480Z,4.60
2023-04-20T08:11:41.377Z,8.27
2023-04-20T08:12:45.391Z,5.50
2023-04-20T08:13:50.089Z,3.08
2023-04-20T08:14:53.899Z,4.97
2023-04-20T08:15:57.641Z,6.43
2023-04-20T08:17:01.698Z,9.25
2023-04-20T08:18:05.652Z,5.30
2023-04-20T08:20:22.439Z,3.38
2023-04-20T08:21:26.648Z,6.20
2023-04-20T08:22:30.575Z,5.30
2023-04-20T08:23:34.297Z,5.30
2023-04-20T08:24:38.890Z,3.85
2023-04-20T08:25:45.298Z,7.78
2023-04-20T08:26:49.811Z,4.32
2023-04-20T08:27:53.731Z,3.80
2023-04-20T08:28:58.085Z,5.78
2023-04-20T08:30:05.284Z,4.63
2023-04-20T08:31:08.954Z,4.60
2023-04-20T08:32:13.824Z,5.43
2023-04-20T08:33:18.027Z,5.90
2023-04-20T08:34:22.081Z,4.78
2023-04-20T08:35:26.197Z,10.68
2023-04-20T08:36:29.876Z,5.03
2023-04-20T08:37:34.038Z,5.80
2023-04-20T08:38:37.813Z,3.35
2023-04-20T08:39:41.358Z,6.78
2023-04-20T08:40:44.998Z,6.47
2023-04-20T08:41:53.780Z,4.07
2023-04-20T08:42:59.805Z,8.00
2023-04-20T08:44:04.530Z,6.65
2023-04-20T08:45:09.549Z,10.50
2023-04-20T08:46:14.661Z,4.28
2023-04-20T08:47:18.259Z,10.50
2023-04-20T08:48:23.546Z,3.97
2023-04-20T08:49:32.956Z,4.47
2023-04-20T08:50:40.947Z,6.05
2023-04-20T08:51:46.551Z,7.10
2023-04-20T08:52:50.393Z,3.70
2023-04-20T08:53:56.763Z,7.97
2023-04-20T08:55:01.009Z,7.20
2023-04-20T08:56:05.473Z,6.05
2023-04-20T08:57:09.294Z,4.47
2023-04-20T08:58:13.072Z,5.53
2023-04-20T08:59:17.139Z,3.85
2023-04-20T09:00:21.440Z,7.55
2023-04-20T09:01:35.292Z,6.70
2023-04-20T09:02:54.832Z,6.15
2023-04-20T09:04:00.917Z,4.35
2023-04-20T09:05:06.125Z,7.28
2023-04-20T09:06:18.817Z,5.35
2023-04-20T09:07:22.908Z,5.22
2023-04-20T09:08:41.710Z,3.13
2023-04-20T09:10:14.589Z,5.15
2023-04-20T09:11:32.267Z,4.53
2023-04-20T09:12:43.507Z,6.90
2023-04-20T09:14:07.088Z,4.18
2023-04-20T09:15:11.855Z,3.80
2023-04-20T09:16:15.809Z,9.00
2023-04-20T09:17:39.411Z,4.75
2023-04-20T09:18:56.698Z,6.00
2023-04-20T09:20:00.374Z,3.95
2023-04-20T09:21:11.345Z,5.25
2023-04-20T09:22:14.961Z,9.27
2023-04-20T09:23:24.429Z,4.35
2023-04-20T09:24:37.689Z,5.05
2023-04-20T09:25:43.542Z,6.95
2023-04-20T09:26:47.433Z,4.38
2023-04-20T09:28:02.313Z,3.80
2023-04-20T09:29:18.742Z,4.47
2023-04-20T09:30:22.874Z,4.38
2023-04-20T09:31:26.876Z,5.50
2023-04-20T09:32:30.989Z,2.78
2023-04-20T09:33:36.843Z,4.60
2023-04-20T09:34:45.186Z,4.38
2023-04-20T09:35:48.978Z,4.88
2023-04-20T09:36:56.357Z,2.97
2023-04-20T09:37:59.963Z,3.55
2023-04-20T09:39:16.583Z,5.43
2023-04-20T09:40:22.400Z,4.82
2023-04-20T09:41:26.142Z,6.25
2023-04-20T09:42:32.897Z,3.97
2023-04-20T09:43:36.656Z,3.28
2023-04-20T09:44:41.850Z,3.35
2023-04-20T09:45:46.343Z,5.05
2023-04-20T09:46:50.305Z,3.80
2023-04-20T09:47:56.038Z,3.90
2023-04-20T09:49:01.729Z,5.35
2023-04-20T09:50:19.453Z,3.22
2023-04-20T09:51:29.698Z,5.20
2023-04-20T09:52:37.732Z,6.97
2023-04-20T09:53:42.812Z,7.85
2023-04-20T09:54:47.209Z,6.65
2023-04-20T09:55:54.609Z,9.32
2023-04-20T09:57:00.015Z,4.68
2023-04-20T09:58:05.355Z,5.75
2023-04-20T09:59:09.406Z,6.63
2023-04-20T10:00:14.075Z,6.32
2023-04-20T10:01:18.655Z,5.60
2023-04-20T10:02:22.459Z,4.30
2023-04-20T10:03:26.699Z,3.17
2023-04-20T10:04:30.636Z,2.58
2023-04-20T10:05:37.056Z,2.58
2023-04-20T10:06:54.050Z,2.03
2023-04-20T10:08:01.474Z,4.45
2023-04-20T10:09:08.504Z,2.47
2023-04-20T10:10:15.863Z,2.83
2023-04-20T10:11:49.019Z,3.10
2023-04-20T10:13:01.518Z,2.35
2023-04-20T10:14:23.410Z,3.63
2023-04-20T10:15:42.107Z,4.07
2023-04-20T10:16:58.504Z,2.65
2023-04-20T10:18:02.361Z,3.65
2023-04-20T10:19:09.021Z,4.07
2023-04-20T10:20:28.515Z,3.90
2023-04-20T10:21:33.648Z,3.83
2023-04-20T10:22:39.291Z,3.05
2023-04-20T10:23:51.533Z,3.92
2023-04-20T10:24:55.866Z,2.97
2023-04-20T10:26:01.902Z,3.92
2023-04-20T10:27:20.352Z,2.85
2023-04-20T10:28:24.162Z,2.10
2023-04-20T10:29:29.417Z,3.72
2023-04-20T10:30:34.764Z,5.75
2023-04-20T10:31:42.716Z,4.45
2023-04-20T10:32:46.612Z,2.33
2023-04-20T10:33:56.990Z,7.03
2023-04-20T10:35:13.991Z,5.68
2023-04-20T10:36:27.201Z,3.05
2023-04-20T10:37:32.320Z,4.47
2023-04-20T10:38:36.793Z,4.35
2023-04-20T10:39:48.415Z,3.92
2023-04-20T10:40:52.230Z,2.90
2023-04-20T10:42:02.177Z,2.85
2023-04-20T10:43:19.569Z,8.75
2023-04-20T10:44:23.507Z,4.22
2023-04-20T10:45:38.774Z,2.53
2023-04-20T10:46:42.522Z,4.20
2023-04-20T10:47:46.218Z,3.90
2023-04-20T10:48:58.953Z,5.30
2023-04-20T10:50:10.636Z,2.72
2023-04-20T10:51:14.583Z,5.55
2023-04-20T10:52:18.181Z,5.03
2023-04-20T10:53:24.181Z,3.95
2023-04-20T10:54:37.225Z,2.97
2023-04-20T10:55:41.602Z,4.45
2023-04-20T10:56:52.823Z,5.25
2023-04-20T10:57:57.855Z,3.78
2023-04-20T10:59:11.461Z,6.75
2023-04-20T11:00:20.814Z,6.43
2023-04-20T11:01:24.486Z,4.88
2023-04-20T11:02:28.510Z,3.17
2023-04-20T11:03:34.655Z,3.65
2023-04-20T11:04:38.679Z,6.38
2023-04-20T11:05:42.463Z,5.90
2023-04-20T11:06:48.501Z,7.72
2023-04-20T11:08:01.462Z,3.72
2023-04-20T11:09:17.303Z,3.28
2023-04-20T11:10:37.769Z,5.22
2023-04-20T11:11:41.894Z,4.63
2023-04-20T11:12:45.693Z,6.85
2023-04-20T11:13:50.759Z,3.35
2023-04-20T11:15:03.032Z,6.88
2023-04-20T11:16:15.019Z,4.07
2023-04-20T11:17:19.407Z,3.95
2023-04-20T11:18:23.337Z,4.10
2023-04-20T11:19:36.255Z,3.08
2023-04-20T11:21:00.883Z,2.97
2023-04-20T11:22:23.690Z,2.95
2023-04-20T11:23:38.773Z,3.30
2023-04-20T11:24:44.157Z,4.63
2023-04-20T11:25:56.564Z,3.15
2023-04-20T11:27:02.007Z,7.13
2023-04-20T11:28:11.537Z,7.63
2023-04-20T11:29:26.674Z,2.80
2023-04-20T11:30:40.179Z,2.67
2023-04-20T11:31:51.388Z,2.75
2023-04-20T11:32:55.944Z,2.67
2023-04-20T11:33:59.799Z,3.42
2023-04-20T11:35:11.225Z,2.60
2023-04-20T11:36:30.052Z,2.15
2023-04-20T11:37:46.398Z,2.58
2023-04-20T11:38:51.391Z,2.90
2023-04-20T11:40:09.719Z,2.05
2023-04-20T11:41:13.509Z,7.03
2023-04-20T11:42:18.055Z,2.47
2023-04-20T11:43:22.299Z,2.95
2023-04-20T11:44:27.491Z,8.48
2023-04-20T11:45:36.300Z,4.38
2023-04-20T11:46:40.401Z,2.90
2023-04-20T11:47:45.818Z,3.60
2023-04-20T11:48:50.040Z,2.88
2023-04-20T11:49:53.803Z,2.92
2023-04-20T11:50:58.654Z,3.65
2023-04-20T11:52:02.363Z,4.05
2023-04-20T11:53:06.411Z,2.97
2023-04-20T11:54:10.722Z,3.22
2023-04-20T11:55:14.833Z,8.68
2023-04-20T11:56:18.723Z,2.97
2023-04-20T11:57:24.108Z,4.03
2023-04-20T11:58:27.861Z,2.70
2023-04-20T11:59:31.671Z,2.20
2023-04-20T12:00:35.677Z,4.00
2023-04-20T12:01:41.043Z,2.88
2023-04-20T12:02:44.934Z,3.53
2023-04-20T12:03:48.994Z,3.33
2023-04-20T12:04:55.727Z,7.40
2023-04-20T12:05:59.480Z,2.83
2023-04-20T12:07:03.574Z,5.78
2023-04-20T12:08:08.399Z,5.57
2023-04-20T12:09:13.620Z,2.78
2023-04-20T12:10:17.414Z,3.35
2023-04-20T12:11:21.181Z,8.43
2023-04-20T12:12:26.865Z,3.13
2023-04-20T12:13:30.589Z,3.75
2023-04-20T12:14:34.963Z,2.75
2023-04-20T12:15:38.621Z,3.20
2023-04-20T12:16:42.326Z,3.00
2023-04-20T12:17:46.284Z,8.65
2023-04-20T12:18:50.143Z,2.90
2023-04-20T12:19:53.832Z,3.55
2023-04-20T12:20:57.601Z,8.02
2023-04-20T12:22:06.056Z,2.88
2023-04-20T12:23:09.849Z,10.75
2023-04-20T12:24:13.563Z,3.47
2023-04-20T12:25:17.298Z,3.05
2023-04-20T12:26:22.610Z,4.90
2023-04-20T12:27:28.978Z,4.05
2023-04-20T12:28:33.550Z,4.43
2023-04-20T12:29:37.136Z,5.57
2023-04-20T12:30:41.082Z,1.98
2023-04-20T12:31:45.368Z,3.38
2023-04-20T12:32:49.065Z,5.22
2023-04-20T12:33:52.752Z,5.72
2023-04-20T12:34:56.374Z,5.07
2023-04-20T12:36:00.634Z,2.28
2023-04-20T12:37:04.176Z,3.40
2023-04-20T12:38:07.931Z,11.25
2023-04-20T12:39:12.090Z,9.07
2023-04-20T12:40:16.032Z,2.25
2023-04-20T12:41:19.971Z,2.42
2023-04-20T12:42:24.430Z,5.53
2023-04-20T12:43:28.823Z,8.70
2023-04-20T12:44:32.710Z,2.80
2023-04-20T12:45:36.510Z,2.78
2023-04-20T12:46:40.298Z,4.40
2023-04-20T12:47:44.060Z,3.13
2023-04-20T12:48:47.938Z,5.20
2023-04-20T12:49:51.721Z,1.98
2023-04-20T12:50:55.274Z,2.58
2023-04-20T12:51:58.845Z,6.00
2023-04-20T12:53:03.040Z,6.57
2023-04-20T12:54:06.914Z,5.88
2023-04-20T12:55:11.626Z,5.38
2023-04-20T12:56:15.490Z,2.25
2023-04-20T12:57:19.116Z,10.73
2023-04-20T12:58:22.703Z,4.90
2023-04-20T12:59:26.449Z,3.13
2023-04-20T13:00:30.230Z,2.05
2023-04-20T13:01:34.231Z,10.13
2023-04-20T13:02:38.284Z,2.15
2023-04-20T13:03:42.839Z,4.45
2023-04-20T13:04:47.448Z,8.35
2023-04-20T13:05:51.918Z,8.55
2023-04-20T13:06:55.905Z,10.02
2023-04-20T13:08:03.173Z,8.82
2023-04-20T13:09:07.563Z,3.55
2023-04-20T13:10:12.744Z,3.50
2023-04-20T13:11:18.095Z,4.65
2023-04-20T13:12:22.476Z,2.05
2023-04-20T13:13:26.867Z,2.08
2023-04-20T13:14:32.071Z,3.92
2023-04-20T13:15:39.530Z,4.05
2023-04-20T13:16:43.858Z,2.42
2023-04-20T13:17:48.066Z,8.70
2023-04-20T13:18:52.796Z,3.33
2023-04-20T13:19:57.302Z,2.22
2023-04-20T13:21:01.447Z,3.42
2023-04-20T13:22:05.135Z,5.03
2023-04-20T13:23:08.732Z,4.55
2023-04-20T13:24:12.450Z,5.03
2023-04-20T13:25:16.317Z,2.05
2023-04-20T13:26:21.932Z,2.03
2023-04-20T13:27:25.928Z,2.78
2023-04-20T13:28:33.351Z,3.22
2023-04-20T13:29:37.031Z,2.65
2023-04-20T13:30:40.627Z,6.13
2023-04-20T13:31:44.577Z,3.42
2023-04-20T13:32:48.604Z,1.63
2023-04-20T13:33:55.805Z,2.30
2023-04-20T13:34:59.551Z,2.65
2023-04-20T13:36:03.818Z,2.58
2023-04-20T13:37:08.198Z,7.00
2023-04-20T13:38:15.082Z,3.80
2023-04-20T13:39:20.409Z,3.95
2023-04-20T13:40:24.365Z,1.42
2023-04-20T13:41:28.089Z,3.90
2023-04-20T13:42:31.808Z,2.30
2023-04-20T13:43:35.693Z,1.92
2023-04-20T13:44:39.393Z,4.72
2023-04-20T13:45:43.530Z,6.90
2023-04-20T13:46:48.452Z,4.35
2023-04-20T13:47:52.452Z,1.60
2023-04-20T13:49:00.092Z,4.38
2023-04-20T13:50:04.399Z,12.70
2023-04-20T13:51:08.697Z,3.30
2023-04-20T13:52:12.506Z,2.60
2023-04-20T13:53:16.446Z,5.35
2023-04-20T13:54:21.213Z,12.25
2023-04-20T13:55:26.884Z,2.75
2023-04-20T13:56:31.362Z,2.33
2023-04-20T13:57:35.154Z,5.93
2023-04-20T13:58:38.868Z,1.65
2023-04-20T13:59:42.949Z,2.83
2023-04-20T14:00:48.031Z,5.05
2023-04-20T14:01:51.751Z,1.95
2023-04-20T14:02:56.364Z,2.05
2023-04-20T14:04:00.864Z,1.75
2023-04-20T14:05:06.528Z,4.13
2023-04-20T14:06:10.607Z,7.40
2023-04-20T14:07:17.800Z,3.15
2023-04-20T14:08:23.467Z,3.00
2023-04-20T14:09:32.468Z,3.60
2023-04-20T14:10:38.928Z,1.40
2023-04-20T14:11:43.914Z,3.25
2023-04-20T14:12:48.547Z,4.40
2023-04-20T14:13:52.708Z,2.03
2023-04-20T14:15:00.712Z,1.77
2023-04-20T14:16:12.512Z,1.80
2023-04-20T14:17:19.358Z,2.28
2023-04-20T14:18:23.107Z,1.90
2023-04-20T14:19:30.076Z,3.22
2023-04-20T14:20:35.561Z,7.72
2023-04-20T14:21:40.473Z,7.00
2023-04-20T14:22:44.229Z,3.05
2023-04-20T14:23:53.430Z,2.15
2023-04-20T14:24:57.094Z,1.83
2023-04-20T14:26:01.178Z,2.08
2023-04-20T14:27:04.886Z,2.10
2023-04-20T14:28:08.535Z,2.20
2023-04-20T14:29:12.710Z,2.78
2023-04-20T14:30:16.976Z,1.90
2023-04-20T14:31:20.802Z,8.15
2023-04-20T14:32:24.765Z,2.00
2023-04-20T14:33:28.967Z,2.97
2023-04-20T14:34:32.662Z,6.05
2023-04-20T14:35:36.502Z,1.60
2023-04-20T14:36:40.292Z,2.08
2023-04-20T14:37:44.188Z,3.88